Time;durP1;ratioP1;P1;durP2;ratioP2;P2;SDS_P1;SDS_P2;PMS_P1;PMS_P2;Temp;Humidity;BMP_temperature;BMP_pressure;BME280_temperature;BME280_humidity;BME280_pressure;Samples;Min_cycle;Max_cycle;Signal;HPM_P1;HPM_P2
2023/08/18 00:00:38;;;;;;;4.25;3.83;;;;;;;;;;5067542;28;20255;-89
2023/08/18 00:03:05;;;;;;;5.45;3.92;;;;;;;;;;5056870;28;20560;-89
2023/08/18 00:05:32;;;;;;;4.13;3.28;;;;;;;;;;5065078;28;20235;-89
2023/08/18 00:07:59;;;;;;;3.58;3.28;;;;;;;;;;5065842;28;20234;-89
2023/08/18 00:10:28;;;;;;;4.03;3.72;;;;;;;;;;5065112;28;20228;-89
2023/08/18 00:12:55;;;;;;;5.38;4.78;;;;;;;;;;5064973;28;20210;-89
2023/08/18 00:15:22;;;;;;;5.55;4.90;;;;;;;;;;5061626;28;20238;-89
2023/08/18 00:17:49;;;;;;;5.13;4.60;;;;;;;;;;5054109;28;20702;-89
2023/08/18 00:20:16;;;;;;;5.55;4.55;;;;;;;;;;5061805;28;20687;-89
2023/08/18 00:22:43;;;;;;;5.50;4.50;;;;;;;;;;5062164;28;20206;-89
2023/08/18 00:25:11;;;;;;;6.43;5.03;;;;;;;;;;5053321;28;20210;-89
2023/08/18 00:27:39;;;;;;;5.03;4.45;;;;;;;;;;5053604;28;20707;-90
2023/08/18 00:30:07;;;;;;;6.57;4.53;;;;;;;;;;5070169;28;20744;-89
2023/08/18 00:32:34;;;;;;;5.60;5.13;;;;;;;;;;5053960;28;20206;-89
2023/08/18 00:35:01;;;;;;;5.60;4.53;;;;;;;;;;5055317;28;20206;-89
2023/08/18 00:37:28;;;;;;;5.20;4.55;;;;;;;;;;5064950;28;20225;-89
2023/08/18 00:39:54;;;;;;;5.35;4.85;;;;;;;;;;5064611;28;20664;-89
2023/08/18 00:42:21;;;;;;;4.57;4.18;;;;;;;;;;5061073;28;20233;-89
2023/08/18 00:44:50;;;;;;;6.80;4.60;;;;;;;;;;5062162;28;20198;-89
2023/08/18 00:47:17;;;;;;;4.55;4.18;;;;;;;;;;5064674;28;20229;-89
2023/08/18 00:49:44;;;;;;;5.05;4.10;;;;;;;;;;5073474;28;20216;-89
2023/08/18 00:52:12;;;;;;;5.72;4.47;;;;;;;;;;5064427;28;20225;-89
2023/08/18 00:54:39;;;;;;;6.30;5.22;;;;;;;;;;5058384;28;20198;-89
2023/08/18 00:57:06;;;;;;;6.72;5.45;;;;;;;;;;5056498;28;20246;-88
2023/08/18 00:59:33;;;;;;;5.28;4.78;;;;;;;;;;5041261;28;20545;-88
2023/08/18 01:02:03;;;;;;;5.25;4.75;;;;;;;;;;5061032;28;20237;-88
2023/08/18 01:04:30;;;;;;;5.20;4.70;;;;;;;;;;5054777;28;20249;-89
2023/08/18 01:06:58;;;;;;;4.97;4.47;;;;;;;;;;5066488;28;20237;-89
2023/08/18 01:09:25;;;;;;;5.32;4.82;;;;;;;;;;5058090;28;20663;-89
2023/08/18 01:11:57;;;;;;;6.95;4.63;;;;;;;;;;5056533;28;20230;-89
2023/08/18 01:14:28;;;;;;;5.40;4.90;;;;;;;;;;5053995;28;20218;-89
2023/08/18 01:16:58;;;;;;;7.65;5.05;;;;;;;;;;5052601;28;20241;-89
2023/08/18 01:19:27;;;;;;;5.07;4.45;;;;;;;;;;5064805;28;20198;-89
2023/08/18 01:21:56;;;;;;;5.60;5.10;;;;;;;;;;5055816;28;20702;-89
2023/08/18 01:24:26;;;;;;;5.68;4.93;;;;;;;;;;5069309;28;20315;-89
2023/08/18 01:26:53;;;;;;;6.20;4.75;;;;;;;;;;5070714;28;20237;-89
2023/08/18 01:29:20;;;;;;;8.02;4.97;;;;;;;;;;5048470;28;20209;-89
2023/08/18 01:31:49;;;;;;;6.63;5.07;;;;;;;;;;5056164;28;20238;-89
2023/08/18 01:34:17;;;;;;;5.57;5.07;;;;;;;;;;5059806;28;20197;-89
2023/08/18 01:36:45;;;;;;;8.10;5.28;;;;;;;;;;5058646;28;20238;-89
2023/08/18 01:39:13;;;;;;;7.00;5.28;;;;;;;;;;5072070;28;20576;-89
2023/08/18 01:41:43;;;;;;;5.97;5.47;;;;;;;;;;5070381;28;20233;-89
2023/08/18 01:44:10;;;;;;;7.90;5.47;;;;;;;;;;5057924;28;20571;-89
2023/08/18 01:46:37;;;;;;;7.63;5.80;;;;;;;;;;5061746;28;20597;-89
2023/08/18 01:49:04;;;;;;;6.47;5.30;;;;;;;;;;5059030;28;20548;-88
2023/08/18 01:51:31;;;;;;;6.40;5.78;;;;;;;;;;5069318;28;20699;-89
2023/08/18 01:53:58;;;;;;;6.22;5.25;;;;;;;;;;5059360;28;20664;-89
2023/08/18 01:56:25;;;;;;;7.50;5.25;;;;;;;;;;5068450;28;20233;-89
2023/08/18 01:58:54;;;;;;;10.00;5.55;;;;;;;;;;5060324;28;20206;-89
2023/08/18 02:01:21;;;;;;;9.68;5.53;;;;;;;;;;5075559;28;20233;-89
2023/08/18 02:03:48;;;;;;;7.95;6.03;;;;;;;;;;5068616;28;20202;-88
2023/08/18 02:06:15;;;;;;;7.93;5.95;;;;;;;;;;5065706;28;20237;-88
2023/08/18 02:08:42;;;;;;;7.78;5.13;;;;;;;;;;5060292;28;20714;-89
2023/08/18 02:11:09;;;;;;;6.57;5.68;;;;;;;;;;5056536;28;20225;-89
2023/08/18 02:13:36;;;;;;;7.03;6.13;;;;;;;;;;5062557;28;20210;-89
2023/08/18 02:16:05;;;;;;;9.88;5.70;;;;;;;;;;5063882;28;20229;-89
2023/08/18 02:18:33;;;;;;;9.07;5.53;;;;;;;;;;5068963;28;20607;-89
2023/08/18 02:21:02;;;;;;;6.78;6.07;;;;;;;;;;5067000;28;20280;-89
2023/08/18 02:23:29;;;;;;;7.72;5.18;;;;;;;;;;5067392;28;20217;-89
2023/08/18 02:26:00;;;;;;;7.30;5.15;;;;;;;;;;5067092;28;20929;-89
2023/08/18 02:28:27;;;;;;;10.27;6.85;;;;;;;;;;5060597;28;20221;-89
2023/08/18 02:30:59;;;;;;;8.05;6.07;;;;;;;;;;5066903;28;20597;-89
2023/08/18 02:33:28;;;;;;;7.00;5.72;;;;;;;;;;5056171;28;20186;-89
2023/08/18 02:35:55;;;;;;;5.15;4.75;;;;;;;;;;5062622;28;20230;-89
2023/08/18 02:38:22;;;;;;;9.70;5.20;;;;;;;;;;5055253;28;20241;-89
2023/08/18 02:40:49;;;;;;;6.85;5.45;;;;;;;;;;5063086;28;20228;-89
2023/08/18 02:43:16;;;;;;;9.02;6.05;;;;;;;;;;5071889;28;20206;-89
2023/08/18 02:45:43;;;;;;;6.45;5.85;;;;;;;;;;5055023;28;20237;-89
2023/08/18 02:48:11;;;;;;;8.45;6.57;;;;;;;;;;5055186;28;20241;-89
2023/08/18 02:50:39;;;;;;;10.55;6.68;;;;;;;;;;5060104;28;20607;-90
2023/08/18 02:53:07;;;;;;;7.28;6.47;;;;;;;;;;5074286;28;20209;-88
2023/08/18 02:55:34;;;;;;;7.28;6.45;;;;;;;;;;5063075;28;20237;-89
2023/08/18 02:58:01;;;;;;;9.45;6.38;;;;;;;;;;5059328;28;20761;-89
2023/08/18 03:00:28;;;;;;;6.28;5.75;;;;;;;;;;5063066;28;20283;-90
2023/08/18 03:02:55;;;;;;;7.35;5.97;;;;;;;;;;5062983;28;20220;-89
2023/08/18 03:05:22;;;;;;;7.25;6.53;;;;;;;;;;5063395;28;20233;-89
2023/08/18 03:07:51;;;;;;;9.07;5.80;;;;;;;;;;5062639;28;20237;-90
2023/08/18 03:10:21;;;;;;;7.57;6.15;;;;;;;;;;5056227;28;20214;-88
2023/08/18 03:12:48;;;;;;;6.80;6.10;;;;;;;;;;5067685;28;20194;-90
2023/08/18 03:15:15;;;;;;;6.82;6.22;;;;;;;;;;5062112;28;20209;-90
2023/08/18 03:17:42;;;;;;;8.20;6.25;;;;;;;;;;5062813;28;20233;-89
2023/08/18 03:20:09;;;;;;;6.70;6.10;;;;;;;;;;5063993;28;20206;-90
2023/08/18 03:22:37;;;;;;;6.85;5.35;;;;;;;;;;5066127;28;20221;-90
2023/08/18 03:25:06;;;;;;;9.00;6.22;;;;;;;;;;5065283;28;20664;-89
2023/08/18 03:27:33;;;;;;;6.43;5.80;;;;;;;;;;5054975;28;20225;-90
2023/08/18 03:30:00;;;;;;;7.82;6.22;;;;;;;;;;5062831;28;20201;-89
2023/08/18 03:32:28;;;;;;;8.40;6.30;;;;;;;;;;5037732;28;20226;-89
2023/08/18 03:34:55;;;;;;;8.80;6.68;;;;;;;;;;5063140;28;20210;-89
2023/08/18 03:37:22;;;;;;;7.07;6.38;;;;;;;;;;5057046;28;20239;-90
2023/08/18 03:39:49;;;;;;;9.43;7.32;;;;;;;;;;5059247;28;20202;-89
2023/08/18 03:42:17;;;;;;;7.25;6.22;;;;;;;;;;5072756;28;20768;-89
2023/08/18 03:44:44;;;;;;;8.80;6.57;;;;;;;;;;5060023;28;20194;-90
2023/08/18 03:47:12;;;;;;;7.03;6.43;;;;;;;;;;5055107;28;20237;-91
2023/08/18 03:49:39;;;;;;;7.15;6.50;;;;;;;;;;5065331;28;20197;-91
2023/08/18 03:52:06;;;;;;;11.25;7.22;;;;;;;;;;5064745;28;20233;-90
2023/08/18 03:54:33;;;;;;;6.13;5.53;;;;;;;;;;5061966;28;20206;-90
2023/08/18 03:57:00;;;;;;;4.63;4.22;;;;;;;;;;5061366;28;20690;-90
2023/08/18 03:59:29;;;;;;;5.00;4.60;;;;;;;;;;5054501;28;20198;-90
2023/08/18 04:01:56;;;;;;;6.10;4.68;;;;;;;;;;5069383;28;20221;-91
2023/08/18 04:04:23;;;;;;;7.07;6.35;;;;;;;;;;5055116;28;20222;-90
2023/08/18 04:06:50;;;;;;;5.97;5.47;;;;;;;;;;5053987;28;20733;-90
2023/08/18 04:09:17;;;;;;;6.20;5.57;;;;;;;;;;5054824;28;20202;-85
2023/08/18 04:11:45;;;;;;;10.50;5.78;;;;;;;;;;5056815;28;20686;-85
2023/08/18 04:14:12;;;;;;;5.90;5.25;;;;;;;;;;5059634;28;20202;-85
2023/08/18 04:16:41;;;;;;;5.40;4.90;;;;;;;;;;5058925;28;20237;-84
2023/08/18 04:19:08;;;;;;;5.93;5.28;;;;;;;;;;5060522;28;20203;-85
2023/08/18 04:21:35;;;;;;;6.20;5.60;;;;;;;;;;5070753;28;20237;-87
2023/08/18 04:24:02;;;;;;;7.90;5.95;;;;;;;;;;5047738;28;20660;-86
2023/08/18 04:26:30;;;;;;;6.47;5.88;;;;;;;;;;5058970;28;20230;-86
2023/08/18 04:28:57;;;;;;;7.22;6.45;;;;;;;;;;5054811;28;20221;-89
2023/08/18 04:31:24;;;;;;;9.35;7.13;;;;;;;;;;5069768;28;20240;-86
2023/08/18 04:33:52;;;;;;;8.63;6.20;;;;;;;;;;5051808;28;20214;-87
2023/08/18 04:36:18;;;;;;;11.25;7.22;;;;;;;;;;5061567;28;20730;-87
2023/08/18 04:38:45;;;;;;;13.48;7.50;;;;;;;;;;5057796;28;20220;-87
2023/08/18 04:41:13;;;;;;;7.65;6.85;;;;;;;;;;5060114;28;20241;-87
2023/08/18 04:43:40;;;;;;;12.48;7.43;;;;;;;;;;5063198;28;20228;-87
2023/08/18 04:46:07;;;;;;;8.15;7.00;;;;;;;;;;5062758;28;20233;-88
2023/08/18 04:48:34;;;;;;;7.57;6.88;;;;;;;;;;5060810;28;20222;-88
2023/08/18 04:51:03;;;;;;;7.15;6.10;;;;;;;;;;5059539;28;20229;-88
2023/08/18 04:53:30;;;;;;;11.68;7.00;;;;;;;;;;5064619;28;20848;-88
2023/08/18 04:55:57;;;;;;;8.38;6.20;;;;;;;;;;5057056;28;20549;-88
2023/08/18 04:58:24;;;;;;;7.18;6.47;;;;;;;;;;5063155;28;20230;-88
2023/08/18 05:00:53;;;;;;;13.88;6.55;;;;;;;;;;5065557;28;20225;-88
2023/08/18 05:03:20;;;;;;;8.60;6.95;;;;;;;;;;5059878;28;20225;-88
2023/08/18 05:05:59;;;;;;;9.93;7.00;;;;;;;;;;5062321;28;20240;-88
2023/08/18 05:08:27;;;;;;;8.98;7.05;;;;;;;;;;5056824;28;20229;-88
2023/08/18 05:10:57;;;;;;;10.35;7.20;;;;;;;;;;5056351;28;20232;-89
2023/08/18 05:13:24;;;;;;;8.05;7.13;;;;;;;;;;5064302;28;20264;-88
2023/08/18 05:15:52;;;;;;;8.18;7.25;;;;;;;;;;5063628;28;20226;-87
2023/08/18 05:18:19;;;;;;;9.93;7.38;;;;;;;;;;5073892;28;20316;-88
2023/08/18 05:20:46;;;;;;;15.23;8.68;;;;;;;;;;5061366;28;20241;-88
2023/08/18 05:23:16;;;;;;;11.00;8.13;;;;;;;;;;5064913;28;20226;-88
2023/08/18 05:25:44;;;;;;;11.15;8.20;;;;;;;;;;5067474;28;20338;-88
2023/08/18 05:28:11;;;;;;;16.00;8.82;;;;;;;;;;5067679;28;20696;-88
2023/08/18 05:30:38;;;;;;;11.52;8.88;;;;;;;;;;5067260;28;20225;-88
2023/08/18 05:33:05;;;;;;;12.05;8.27;;;;;;;;;;5068632;28;20206;-88
2023/08/18 05:35:33;;;;;;;10.15;7.75;;;;;;;;;;5055495;28;20226;-88
2023/08/18 05:38:00;;;;;;;9.88;7.65;;;;;;;;;;5063779;28;20217;-89
2023/08/18 05:40:27;;;;;;;8.00;7.25;;;;;;;;;;5065159;28;20233;-89
2023/08/18 05:42:55;;;;;;;7.95;6.93;;;;;;;;;;5056802;28;20230;-88
2023/08/18 05:45:23;;;;;;;7.00;6.38;;;;;;;;;;5066550;28;20201;-88
2023/08/18 05:47:50;;;;;;;9.02;6.40;;;;;;;;;;5062774;28;20237;-88
2023/08/18 05:50:17;;;;;;;6.72;6.13;;;;;;;;;;5063773;28;20222;-87
2023/08/18 05:52:44;;;;;;;7.95;7.15;;;;;;;;;;5063948;28;20198;-88
2023/08/18 05:55:11;;;;;;;7.82;6.75;;;;;;;;;;5071574;28;20674;-88
2023/08/18 05:57:41;;;;;;;8.82;6.78;;;;;;;;;;5063915;28;20700;-87
2023/08/18 06:00:10;;;;;;;11.13;7.18;;;;;;;;;;5054962;28;20232;-87
2023/08/18 06:02:38;;;;;;;7.55;6.43;;;;;;;;;;5059610;28;20332;-87
2023/08/18 06:05:05;;;;;;;6.45;5.85;;;;;;;;;;5067005;28;20201;-88
2023/08/18 06:07:32;;;;;;;6.10;5.18;;;;;;;;;;5054718;28;20237;-88
2023/08/18 06:09:59;;;;;;;6.22;5.20;;;;;;;;;;5061800;28;20636;-88
2023/08/18 06:12:26;;;;;;;7.32;4.85;;;;;;;;;;5065321;28;20231;-86
2023/08/18 06:14:53;;;;;;;4.45;3.95;;;;;;;;;;5065426;28;20205;-86
2023/08/18 06:17:22;;;;;;;6.68;4.72;;;;;;;;;;5063323;28;20244;-87
2023/08/18 06:19:49;;;;;;;4.45;4.05;;;;;;;;;;5062031;28;20198;-87
2023/08/18 06:22:16;;;;;;;4.43;4.03;;;;;;;;;;5061757;28;20726;-87
2023/08/18 06:24:43;;;;;;;4.38;3.97;;;;;;;;;;5060428;28;20209;-87
2023/08/18 06:27:10;;;;;;;5.15;4.63;;;;;;;;;;5061056;28;20237;-86
2023/08/18 06:29:38;;;;;;;4.68;4.28;;;;;;;;;;5049277;28;20198;-86
2023/08/18 06:32:06;;;;;;;7.57;4.43;;;;;;;;;;5064438;28;20236;-87
2023/08/18 06:34:36;;;;;;;6.38;4.70;;;;;;;;;;5062133;28;20209;-87
2023/08/18 06:37:04;;;;;;;5.18;4.60;;;;;;;;;;5059923;28;20618;-86
2023/08/18 06:39:32;;;;;;;4.68;4.07;;;;;;;;;;5062451;28;20220;-87
2023/08/18 06:41:59;;;;;;;4.15;3.75;;;;;;;;;;5060974;28;20226;-86
2023/08/18 06:44:26;;;;;;;6.45;4.22;;;;;;;;;;5063796;28;20674;-87
2023/08/18 06:46:53;;;;;;;4.55;3.60;;;;;;;;;;5067640;28;20698;-86
2023/08/18 06:49:20;;;;;;;6.03;4.15;;;;;;;;;;5062033;28;20213;-86
2023/08/18 06:51:49;;;;;;;5.68;4.40;;;;;;;;;;5064237;28;20221;-86
2023/08/18 06:54:16;;;;;;;3.67;3.33;;;;;;;;;;5056197;28;20654;-86
2023/08/18 06:56:43;;;;;;;4.68;3.55;;;;;;;;;;5059862;28;20233;-87
2023/08/18 06:59:12;;;;;;;3.97;3.38;;;;;;;;;;5061498;28;20576;-86
2023/08/18 07:01:39;;;;;;;4.40;4.00;;;;;;;;;;5060396;28;20774;-86
2023/08/18 07:04:06;;;;;;;5.13;4.47;;;;;;;;;;5061077;28;20867;-87
2023/08/18 07:06:34;;;;;;;5.32;3.63;;;;;;;;;;5062903;28;20287;-85
2023/08/18 07:09:03;;;;;;;3.47;3.13;;;;;;;;;;5060200;28;20206;-86
2023/08/18 07:11:30;;;;;;;5.10;3.45;;;;;;;;;;5061451;28;20221;-85
2023/08/18 07:13:57;;;;;;;5.70;3.50;;;;;;;;;;5058486;28;20322;-86
2023/08/18 07:16:25;;;;;;;4.97;3.03;;;;;;;;;;5053687;28;20599;-86
2023/08/18 07:18:52;;;;;;;4.45;3.42;;;;;;;;;;5051940;28;20285;-86
2023/08/18 07:21:22;;;;;;;4.28;3.42;;;;;;;;;;5060382;28;20253;-86
2023/08/18 07:23:49;;;;;;;4.60;3.20;;;;;;;;;;5056092;28;20225;-86
2023/08/18 07:26:17;;;;;;;5.65;3.10;;;;;;;;;;5062919;28;20232;-86
2023/08/18 07:28:44;;;;;;;3.30;3.00;;;;;;;;;;5051769;28;20221;-86
2023/08/18 07:31:11;;;;;;;4.10;2.75;;;;;;;;;;5051987;28;20225;-86
2023/08/18 07:33:39;;;;;;;4.03;3.20;;;;;;;;;;5060270;28;20198;-86
2023/08/18 07:36:06;;;;;;;4.85;3.33;;;;;;;;;;5051631;28;20245;-87
2023/08/18 07:38:34;;;;;;;3.97;3.17;;;;;;;;;;5054685;28;20230;-87
2023/08/18 07:41:01;;;;;;;5.00;2.78;;;;;;;;;;5065408;28;20276;-86
2023/08/18 07:43:30;;;;;;;4.60;2.90;;;;;;;;;;5054034;28;20225;-86
2023/08/18 07:45:57;;;;;;;4.40;3.20;;;;;;;;;;5057460;28;20731;-86
2023/08/18 07:48:24;;;;;;;5.18;3.00;;;;;;;;;;5061156;28;20596;-86
2023/08/18 07:50:52;;;;;;;3.88;2.95;;;;;;;;;;5063450;28;20225;-87
2023/08/18 07:53:19;;;;;;;3.45;3.15;;;;;;;;;;5063474;28;20621;-87
2023/08/18 07:55:47;;;;;;;2.95;2.75;;;;;;;;;;5059446;28;20233;-86
2023/08/18 07:58:14;;;;;;;4.20;2.97;;;;;;;;;;5047681;28;20276;-88
2023/08/18 08:00:42;;;;;;;3.05;2.70;;;;;;;;;;5044420;28;20625;-89
2023/08/18 08:03:09;;;;;;;3.88;2.47;;;;;;;;;;5053161;28;20236;-92
2023/08/18 08:05:37;;;;;;;3.22;2.72;;;;;;;;;;5050830;28;20238;-90
2023/08/18 08:08:04;;;;;;;2.97;2.58;;;;;;;;;;5054267;28;20680;-89
2023/08/18 08:10:32;;;;;;;3.00;2.70;;;;;;;;;;5053652;28;20303;-90
2023/08/18 08:12:59;;;;;;;4.47;2.83;;;;;;;;;;5059312;28;20205;-88
2023/08/18 08:15:26;;;;;;;2.88;2.33;;;;;;;;;;5052398;28;20248;-90
2023/08/18 08:17:56;;;;;;;5.32;2.85;;;;;;;;;;5052743;28;20224;-90
2023/08/18 08:20:23;;;;;;;2.67;2.47;;;;;;;;;;5051623;28;20238;-90
2023/08/18 08:22:51;;;;;;;3.05;2.63;;;;;;;;;;5052589;28;20692;-91
2023/08/18 08:25:18;;;;;;;3.33;2.55;;;;;;;;;;5058913;28;20201;-90
2023/08/18 08:27:45;;;;;;;3.53;2.42;;;;;;;;;;5050807;28;20229;-91
2023/08/18 08:30:13;;;;;;;3.58;2.50;;;;;;;;;;5055413;28;20215;-90
2023/08/18 08:32:41;;;;;;;2.67;2.40;;;;;;;;;;5052014;28;20684;-90
2023/08/18 08:35:10;;;;;;;2.85;2.50;;;;;;;;;;5052537;28;20233;-92
2023/08/18 08:37:37;;;;;;;2.53;2.30;;;;;;;;;;5057066;28;20233;-92
2023/08/18 08:40:05;;;;;;;4.20;2.55;;;;;;;;;;5055349;28;20206;-92
2023/08/18 08:42:32;;;;;;;3.00;2.50;;;;;;;;;;5065909;28;20241;-92
2023/08/18 08:44:59;;;;;;;2.72;2.30;;;;;;;;;;5061257;28;20230;-92
2023/08/18 08:47:26;;;;;;;2.80;2.53;;;;;;;;;;5055739;28;20240;-90
2023/08/18 08:49:57;;;;;;;3.80;2.47;;;;;;;;;;5055370;28;20202;-90
2023/08/18 08:52:26;;;;;;;4.18;2.50;;;;;;;;;;5057410;28;20225;-90
2023/08/18 08:54:54;;;;;;;4.38;2.60;;;;;;;;;;5056377;28;20209;-90
2023/08/18 08:57:23;;;;;;;3.17;2.58;;;;;;;;;;5053737;28;20249;-89
2023/08/18 08:59:50;;;;;;;2.40;2.22;;;;;;;;;;5056104;28;20201;-96
2023/08/18 09:02:17;;;;;;;3.78;2.30;;;;;;;;;;5059732;28;20226;-95
2023/08/18 09:04:44;;;;;;;3.15;2.45;;;;;;;;;;5059233;28;20237;-95
2023/08/18 09:07:12;;;;;;;2.60;2.40;;;;;;;;;;5057240;28;20238;-96
2023/08/18 09:09:40;;;;;;;2.53;2.20;;;;;;;;;;5059033;28;20213;-96
2023/08/18 09:12:08;;;;;;;2.40;2.17;;;;;;;;;;5057951;28;20243;-96
2023/08/18 09:14:36;;;;;;;3.25;2.22;;;;;;;;;;5059839;28;20649;-96
2023/08/18 09:17:03;;;;;;;3.75;2.25;;;;;;;;;;5058909;28;20695;-96
2023/08/18 09:19:31;;;;;;;5.28;2.45;;;;;;;;;;5060199;28;20190;-96
2023/08/18 09:21:59;;;;;;;4.95;2.20;;;;;;;;;;5061605;28;20281;-96
2023/08/18 09:24:26;;;;;;;2.60;2.40;;;;;;;;;;5065992;28;20232;-96
2023/08/18 09:26:54;;;;;;;3.58;2.30;;;;;;;;;;5058205;28;20240;-96
2023/08/18 09:29:22;;;;;;;2.67;2.47;;;;;;;;;;5057652;28;20210;-95
2023/08/18 09:31:49;;;;;;;3.22;2.30;;;;;;;;;;5056221;28;20245;-95
2023/08/18 09:34:24;;;;;;;2.90;2.28;;;;;;;;;;5057458;28;20206;-96
2023/08/18 09:36:52;;;;;;;4.13;2.83;;;;;;;;;;5052763;28;20611;-96
2023/08/18 09:39:20;;;;;;;3.85;2.60;;;;;;;;;;5057690;28;20186;-96
2023/08/18 09:41:48;;;;;;;6.93;2.30;;;;;;;;;;5037352;28;20233;-95
2023/08/18 09:44:16;;;;;;;2.50;2.30;;;;;;;;;;5038079;28;20229;-96
2023/08/18 09:46:44;;;;;;;3.67;2.58;;;;;;;;;;5064040;28;20238;-96
2023/08/18 09:49:12;;;;;;;2.83;2.53;;;;;;;;;;5072592;28;20201;-95
2023/08/18 09:51:40;;;;;;;3.72;2.30;;;;;;;;;;5071766;28;20233;-95
2023/08/18 09:54:10;;;;;;;4.38;2.38;;;;;;;;;;5064956;28;20234;-95
2023/08/18 09:56:39;;;;;;;3.80;2.50;;;;;;;;;;5057431;28;20699;-95
2023/08/18 09:59:13;;;;;;;3.38;2.40;;;;;;;;;;5057816;28;20221;-95
2023/08/18 10:01:43;;;;;;;4.50;2.22;;;;;;;;;;5058328;28;20701;-96
2023/08/18 10:04:11;;;;;;;2.50;2.28;;;;;;;;;;5077526;28;20236;-96
2023/08/18 10:06:39;;;;;;;4.25;2.40;;;;;;;;;;5076245;28;20229;-95
2023/08/18 10:09:06;;;;;;;2.60;2.40;;;;;;;;;;5063666;28;20621;-95
2023/08/18 10:11:36;;;;;;;4.22;2.42;;;;;;;;;;5044783;28;20309;-95
2023/08/18 10:14:03;;;;;;;3.97;2.80;;;;;;;;;;5056395;28;20660;-95
2023/08/18 10:16:31;;;;;;;2.42;2.20;;;;;;;;;;5064775;28;20233;-95
2023/08/18 10:18:59;;;;;;;4.03;2.42;;;;;;;;;;5061900;28;20194;-95
2023/08/18 10:21:38;;;;;;;2.25;2.05;;;;;;;;;;5059895;28;20606;-96
2023/08/18 10:24:07;;;;;;;3.80;2.58;;;;;;;;;;5062620;28;20680;-95
2023/08/18 10:26:37;;;;;;;2.80;2.25;;;;;;;;;;5056455;28;20229;-96
2023/08/18 10:29:19;;;;;;;2.30;2.17;;;;;;;;;;5056901;28;20199;-95
2023/08/18 10:31:49;;;;;;;2.92;2.13;;;;;;;;;;5055866;28;20734;-96
2023/08/18 10:34:24;;;;;;;2.30;2.10;;;;;;;;;;5064074;28;20205;-96
2023/08/18 10:36:58;;;;;;;3.05;2.22;;;;;;;;;;5075969;28;20270;-95
2023/08/18 10:39:26;;;;;;;2.88;2.33;;;;;;;;;;5076770;28;20227;-95
2023/08/18 10:42:07;;;;;;;2.17;1.98;;;;;;;;;;5076176;28;20229;-95
2023/08/18 10:44:34;;;;;;;2.40;2.20;;;;;;;;;;5058838;28;20225;-96
2023/08/18 10:47:02;;;;;;;3.97;2.47;;;;;;;;;;5056149;28;20287;-96
2023/08/18 10:49:31;;;;;;;2.45;2.03;;;;;;;;;;5056721;28;20224;-96
2023/08/18 10:51:58;;;;;;;2.47;2.00;;;;;;;;;;5055522;28;20237;-96
2023/08/18 10:54:25;;;;;;;2.25;2.00;;;;;;;;;;5055737;28;20202;-96
2023/08/18 10:56:52;;;;;;;2.40;2.20;;;;;;;;;;5055914;28;20233;-96
2023/08/18 10:59:20;;;;;;;2.67;2.10;;;;;;;;;;5056110;28;20190;-96
2023/08/18 11:01:47;;;;;;;3.80;2.20;;;;;;;;;;5055260;28;20259;-96
2023/08/18 11:04:16;;;;;;;5.05;2.10;;;;;;;;;;5066282;28;20233;-95
2023/08/18 11:06:44;;;;;;;2.20;1.98;;;;;;;;;;5054727;28;20287;-95
2023/08/18 11:09:12;;;;;;;2.20;2.00;;;;;;;;;;5059096;28;20207;-88
2023/08/18 11:11:40;;;;;;;3.10;1.98;;;;;;;;;;5053603;28;20676;-89
2023/08/18 11:14:07;;;;;;;3.03;2.10;;;;;;;;;;5052555;28;20273;-88
2023/08/18 11:16:38;;;;;;;2.58;1.90;;;;;;;;;;5051465;28;20275;-89
2023/08/18 11:19:05;;;;;;;2.95;2.33;;;;;;;;;;5052746;28;20255;-90
2023/08/18 11:21:35;;;;;;;3.70;2.20;;;;;;;;;;5048663;28;20237;-89
2023/08/18 11:24:05;;;;;;;2.88;2.22;;;;;;;;;;5059722;28;20233;-89
2023/08/18 11:26:36;;;;;;;4.00;2.05;;;;;;;;;;5052066;28;20225;-89
2023/08/18 11:29:03;;;;;;;2.95;2.22;;;;;;;;;;5052119;28;20211;-89
2023/08/18 11:31:30;;;;;;;2.30;2.00;;;;;;;;;;5051788;28;20596;-90
2023/08/18 11:33:57;;;;;;;2.50;2.30;;;;;;;;;;5059465;28;20690;-89
2023/08/18 11:36:29;;;;;;;4.00;2.13;;;;;;;;;;5050897;28;20748;-88
2023/08/18 11:38:57;;;;;;;2.50;2.30;;;;;;;;;;5050931;28;20263;-89
2023/08/18 11:41:25;;;;;;;3.85;2.40;;;;;;;;;;5050467;28;20690;-89
2023/08/18 11:43:52;;;;;;;2.30;2.10;;;;;;;;;;5059096;28;20225;-89
2023/08/18 11:46:20;;;;;;;2.22;2.03;;;;;;;;;;5047160;28;20722;-89
2023/08/18 11:48:47;;;;;;;2.00;1.90;;;;;;;;;;5050718;28;20210;-88
2023/08/18 11:51:14;;;;;;;2.63;2.10;;;;;;;;;;5059670;28;20225;-89
2023/08/18 11:53:41;;;;;;;2.67;1.90;;;;;;;;;;5051516;28;20737;-88
2023/08/18 11:56:09;;;;;;;2.72;2.00;;;;;;;;;;5051618;28;20261;-88
2023/08/18 11:58:37;;;;;;;3.88;1.67;;;;;;;;;;5046540;28;20316;-88
2023/08/18 12:01:04;;;;;;;4.13;2.10;;;;;;;;;;5050777;28;20229;-88
2023/08/18 12:03:31;;;;;;;3.30;2.03;;;;;;;;;;5059639;28;20666;-88
2023/08/18 12:06:09;;;;;;;;;;;;;;;;;;;;;
2023/08/18 12:08:36;;;;;;;2.30;2.10;;;;;;;;;;5050802;28;20229;-88
2023/08/18 12:11:04;;;;;;;2.08;1.98;;;;;;;;;;5050230;28;20224;-88
2023/08/18 12:13:33;;;;;;;3.17;2.00;;;;;;;;;;5051473;28;20205;-88
2023/08/18 12:16:01;;;;;;;1.90;1.80;;;;;;;;;;5058138;28;20283;-87
2023/08/18 12:18:28;;;;;;;2.13;1.92;;;;;;;;;;5051445;28;20225;-89
2023/08/18 12:20:56;;;;;;;1.92;1.83;;;;;;;;;;5045940;28;20221;-87
2023/08/18 12:23:23;;;;;;;2.15;1.50;;;;;;;;;;5050992;28;20212;-91
2023/08/18 12:25:50;;;;;;;2.28;1.83;;;;;;;;;;5058153;28;20240;-90
2023/08/18 12:28:17;;;;;;;3.58;1.60;;;;;;;;;;5052688;28;20236;-90
2023/08/18 12:30:45;;;;;;;1.75;1.65;;;;;;;;;;5051384;28;20229;-89
2023/08/18 12:33:13;;;;;;;2.35;1.65;;;;;;;;;;5051043;28;20214;-88
2023/08/18 12:35:40;;;;;;;2.10;1.70;;;;;;;;;;5056089;28;20239;-89
2023/08/18 12:38:08;;;;;;;2.60;1.30;;;;;;;;;;5050766;28;20229;-88
2023/08/18 12:40:35;;;;;;;2.20;1.75;;;;;;;;;;5050353;28;20644;-88
2023/08/18 12:43:02;;;;;;;3.08;1.58;;;;;;;;;;5050693;28;20584;-87
2023/08/18 12:45:29;;;;;;;2.97;1.50;;;;;;;;;;5054652;28;20255;-87
2023/08/18 12:47:56;;;;;;;3.78;1.77;;;;;;;;;;5050006;28;20232;-87
2023/08/18 12:50:25;;;;;;;2.50;1.50;;;;;;;;;;5049757;28;20232;-87
2023/08/18 12:52:52;;;;;;;2.90;2.00;;;;;;;;;;5050647;28;20209;-85
2023/08/18 12:55:19;;;;;;;2.70;1.58;;;;;;;;;;5052236;28;20197;-87
2023/08/18 12:57:46;;;;;;;1.90;1.80;;;;;;;;;;5052057;28;20707;-86
2023/08/18 13:00:14;;;;;;;1.70;1.60;;;;;;;;;;5050769;28;20205;-87
2023/08/18 13:02:41;;;;;;;1.70;1.60;;;;;;;;;;5051219;28;20201;-87
2023/08/18 13:05:08;;;;;;;5.53;2.40;;;;;;;;;;5050171;28;20233;-86
2023/08/18 13:07:37;;;;;;;2.58;2.10;;;;;;;;;;5045685;28;20761;-87
2023/08/18 13:10:04;;;;;;;4.00;1.70;;;;;;;;;;5051070;28;20672;-86
2023/08/18 13:12:31;;;;;;;1.45;1.35;;;;;;;;;;5052508;28;20213;-87
2023/08/18 13:14:58;;;;;;;3.95;2.10;;;;;;;;;;5054144;28;20201;-86
2023/08/18 13:17:25;;;;;;;4.57;2.22;;;;;;;;;;5053114;28;20256;-86
2023/08/18 13:19:52;;;;;;;3.38;1.60;;;;;;;;;;5049928;28;20201;-86
2023/08/18 13:22:19;;;;;;;2.75;1.75;;;;;;;;;;5052163;28;20233;-86
2023/08/18 13:24:48;;;;;;;1.90;1.80;;;;;;;;;;5055936;28;20235;-87
2023/08/18 13:27:15;;;;;;;4.30;1.65;;;;;;;;;;5058398;28;20706;-87
2023/08/18 13:29:43;;;;;;;4.85;2.17;;;;;;;;;;5053462;28;20210;-86
2023/08/18 13:32:10;;;;;;;1.95;1.83;;;;;;;;;;5053640;28;20233;-86
2023/08/18 13:34:40;;;;;;;1.95;1.75;;;;;;;;;;5054898;28;20206;-86
2023/08/18 13:37:07;;;;;;;4.07;2.00;;;;;;;;;;5049538;28;20279;-87
2023/08/18 13:39:34;;;;;;;3.65;1.50;;;;;;;;;;5054619;28;20206;-87
2023/08/18 13:42:02;;;;;;;2.13;1.73;;;;;;;;;;5045578;28;20749;-86
2023/08/18 13:44:30;;;;;;;2.72;1.92;;;;;;;;;;5052549;28;20809;-87
2023/08/18 13:46:57;;;;;;;2.10;1.90;;;;;;;;;;5061474;28;20696;-89
2023/08/18 13:49:28;;;;;;;5.60;1.90;;;;;;;;;;5054975;28;20201;-89
2023/08/18 13:51:55;;;;;;;2.20;2.00;;;;;;;;;;5048533;28;20233;-89
2023/08/18 13:54:22;;;;;;;5.90;2.20;;;;;;;;;;5055404;28;20209;-88
2023/08/18 13:56:49;;;;;;;3.42;2.15;;;;;;;;;;5060646;28;20254;-89
2023/08/18 13:59:17;;;;;;;1.88;1.77;;;;;;;;;;5053236;28;20578;-88
2023/08/18 14:01:47;;;;;;;2.35;1.85;;;;;;;;;;5051982;28;20259;-89
2023/08/18 14:07:02;;;;;;;1.73;1.63;;;;;;;;;;5049533;28;20523;-90
2023/08/18 14:09:29;;;;;;;2.00;1.80;;;;;;;;;;5060428;28;20272;-89
2023/08/18 14:11:59;;;;;;;2.72;1.90;;;;;;;;;;5052264;28;20314;-89
2023/08/18 14:14:27;;;;;;;1.83;1.70;;;;;;;;;;5046422;28;20213;-88
2023/08/18 14:16:55;;;;;;;2.10;1.88;;;;;;;;;;5053082;28;20229;-88
2023/08/18 14:19:22;;;;;;;3.03;1.90;;;;;;;;;;5054100;28;20245;-88
2023/08/18 14:21:49;;;;;;;3.45;1.75;;;;;;;;;;5053385;28;20229;-88
2023/08/18 14:24:16;;;;;;;3.47;1.85;;;;;;;;;;5050112;28;20202;-87
2023/08/18 14:26:43;;;;;;;3.42;1.90;;;;;;;;;;5052919;28;20237;-88
2023/08/18 14:29:14;;;;;;;1.90;1.60;;;;;;;;;;5071772;28;20209;-89
2023/08/18 14:31:44;;;;;;;3.72;1.90;;;;;;;;;;5050525;28;20661;-89
2023/08/18 14:34:11;;;;;;;3.35;1.60;;;;;;;;;;5065428;28;20235;-88
2023/08/18 14:36:38;;;;;;;10.93;2.60;;;;;;;;;;5051790;28;20238;-89
2023/08/18 14:39:06;;;;;;;4.13;1.98;;;;;;;;;;5062700;28;20190;-90
2023/08/18 14:41:33;;;;;;;2.17;1.73;;;;;;;;;;5053568;28;20316;-89
2023/08/18 14:44:00;;;;;;;5.78;2.10;;;;;;;;;;5073785;28;20208;-88
2023/08/18 14:46:27;;;;;;;3.03;1.63;;;;;;;;;;5058632;28;20724;-88
2023/08/18 14:48:55;;;;;;;3.13;1.88;;;;;;;;;;5058460;28;20205;-89